Terminal Aerodrome Forecast
Issued by NWS Dallas/Fort Worth, TX

Home | Current Version | Previous Version | Text Only | Print | Product List | Glossary On
Versions: 1 2 3 4 5 6 7 8 9 10 11 12 13 14 15 16 17 18 19 20 21 22 23 24 25 26 27
000
FTUS44 KFWD 051455 AAA
TAFDFW
TAF AMD
KDFW 051455Z 0515/0618 15011KT P6SM SCT025 BKN150
      TEMPO 0516/0518 BKN025
     FM051900 15017KT P6SM BKN040
     FM060000 15016KT P6SM VCTS BKN040CB
     FM060400 15017KT P6SM VCSH BKN018
     FM061000 16015KT P6SM BKN017=

USA.gov is the U.S. government's official web portal to all federal, state and local government web resources and services.